createdAt,value
2019-01-23T00:01:06.151Z,8.50
2019-01-23T00:03:32.479Z,8.52
2019-01-23T00:05:58.826Z,8.53
2019-01-23T00:08:25.206Z,8.54
2019-01-23T00:10:51.614Z,8.59
2019-01-23T00:13:17.967Z,8.60
2019-01-23T00:15:44.379Z,8.60
2019-01-23T00:18:10.758Z,8.61
2019-01-23T00:20:37.168Z,8.64
2019-01-23T00:23:03.567Z,8.64
2019-01-23T00:25:29.947Z,8.65
2019-01-23T00:27:56.370Z,8.64
2019-01-23T00:30:22.688Z,8.64
2019-01-23T00:32:49.031Z,8.59
2019-01-23T00:35:15.427Z,8.49
2019-01-23T00:37:41.807Z,8.41
2019-01-23T00:40:08.155Z,8.43
2019-01-23T00:42:34.538Z,8.48
2019-01-23T00:45:00.914Z,8.50
2019-01-23T00:47:27.327Z,8.53
2019-01-23T00:49:53.730Z,8.54
2019-01-23T00:52:20.073Z,8.55
2019-01-23T00:54:46.445Z,8.58
2019-01-23T00:57:12.821Z,8.59
2019-01-23T00:59:39.153Z,8.61
2019-01-23T01:02:05.524Z,8.62
2019-01-23T01:04:31.820Z,8.61
2019-01-23T01:06:58.133Z,8.63
2019-01-23T01:09:24.432Z,8.63
2019-01-23T01:11:50.743Z,8.63
2019-01-23T01:14:17.047Z,8.62
2019-01-23T01:16:43.357Z,8.64
2019-01-23T01:19:09.659Z,8.57
2019-01-23T01:21:36.014Z,8.46
2019-01-23T01:24:02.323Z,8.41
2019-01-23T01:26:28.633Z,8.42
2019-01-23T01:28:56.128Z,8.45
2019-01-23T01:31:21.251Z,8.48
2019-01-23T01:33:47.551Z,8.49
2019-01-23T01:36:13.905Z,8.52
2019-01-23T01:38:40.262Z,8.56
2019-01-23T01:41:06.566Z,8.58
2019-01-23T01:43:32.872Z,8.59
2019-01-23T01:45:59.195Z,8.60
2019-01-23T01:48:25.517Z,8.62
2019-01-23T01:50:51.877Z,8.64
2019-01-23T01:53:18.189Z,8.64
2019-01-23T01:55:44.503Z,8.64
2019-01-23T01:58:10.815Z,8.65
2019-01-23T02:00:37.120Z,8.63
2019-01-23T02:03:03.429Z,8.60
2019-01-23T02:05:29.736Z,8.56
2019-01-23T02:07:56.047Z,8.47
2019-01-23T02:10:22.348Z,8.41
2019-01-23T02:12:48.662Z,8.41
2019-01-23T02:15:14.967Z,8.46
2019-01-23T02:17:41.272Z,8.47
2019-01-23T02:20:07.576Z,8.48
2019-01-23T02:22:33.883Z,8.48
2019-01-23T02:25:00.200Z,8.49
2019-01-23T02:27:26.495Z,8.50
2019-01-23T02:29:52.793Z,8.53
2019-01-23T02:32:19.103Z,8.55
2019-01-23T02:34:45.413Z,8.54
2019-01-23T02:37:11.720Z,8.54
2019-01-23T02:39:38.021Z,8.52
2019-01-23T02:42:04.336Z,8.54
2019-01-23T02:44:30.637Z,8.53
2019-01-23T02:46:56.973Z,8.51
2019-01-23T02:49:23.285Z,8.48
2019-01-23T02:51:49.594Z,8.41
2019-01-23T02:54:15.905Z,8.33
2019-01-23T02:56:42.208Z,8.30
2019-01-23T02:59:08.526Z,8.33
2019-01-23T03:01:34.831Z,8.34
2019-01-23T03:04:01.142Z,8.25
2019-01-23T03:06:27.444Z,8.36
2019-01-23T03:08:53.757Z,8.37
2019-01-23T03:11:20.072Z,8.39
2019-01-23T03:13:46.381Z,8.41
2019-01-23T03:16:12.691Z,8.42
2019-01-23T03:18:38.995Z,8.44
2019-01-23T03:21:05.310Z,8.44
2019-01-23T03:23:31.620Z,8.43
2019-01-23T03:25:57.933Z,8.43
2019-01-23T03:28:24.235Z,8.41
2019-01-23T03:30:50.546Z,8.41
2019-01-23T03:33:16.858Z,8.41
2019-01-23T03:35:43.156Z,8.38
2019-01-23T03:38:09.475Z,8.30
2019-01-23T03:40:35.781Z,8.23
2019-01-23T03:43:02.083Z,8.19
2019-01-23T03:45:28.393Z,8.20
2019-01-23T03:47:54.703Z,8.23
2019-01-23T03:50:21.006Z,8.24
2019-01-23T03:52:47.325Z,8.25
2019-01-23T03:55:13.633Z,8.24
2019-01-23T03:57:39.965Z,8.29
2019-01-23T04:00:06.271Z,8.31
2019-01-23T04:02:32.579Z,8.34
2019-01-23T04:04:58.889Z,8.35
2019-01-23T04:07:25.183Z,8.35
2019-01-23T04:09:51.490Z,8.35
2019-01-23T04:12:17.793Z,8.36
2019-01-23T04:14:44.104Z,8.35
2019-01-23T04:17:10.405Z,8.34
2019-01-23T04:19:36.745Z,8.34
2019-01-23T04:22:03.016Z,8.30
2019-01-23T04:24:29.334Z,8.22
2019-01-23T04:26:55.633Z,8.16
2019-01-23T04:29:21.941Z,8.11
2019-01-23T04:31:48.248Z,8.17
2019-01-23T04:34:14.556Z,8.17
2019-01-23T04:36:40.864Z,8.14
2019-01-23T04:39:07.176Z,8.16
2019-01-23T04:41:33.495Z,8.18
2019-01-23T04:43:59.805Z,8.19
2019-01-23T04:46:26.116Z,8.22
2019-01-23T04:48:52.445Z,8.23
2019-01-23T04:51:18.765Z,8.23
2019-01-23T04:53:45.074Z,8.23
2019-01-23T04:56:11.380Z,8.23
2019-01-23T04:58:37.695Z,8.22
2019-01-23T05:01:04.000Z,8.21
2019-01-23T05:03:30.305Z,8.21
2019-01-23T05:05:56.611Z,8.23
2019-01-23T05:08:22.917Z,8.21
2019-01-23T05:10:49.228Z,8.12
2019-01-23T05:13:15.537Z,8.06
2019-01-23T05:15:41.870Z,8.01
2019-01-23T05:18:08.178Z,8.07
2019-01-23T05:20:34.506Z,8.06
2019-01-23T05:23:00.809Z,8.07
2019-01-23T05:25:27.123Z,8.09
2019-01-23T05:27:53.424Z,8.13
2019-01-23T05:30:19.737Z,8.15
2019-01-23T05:32:46.043Z,8.19
2019-01-23T05:35:12.354Z,8.21
2019-01-23T05:37:38.665Z,8.23
2019-01-23T05:40:04.976Z,8.21
2019-01-23T05:42:31.281Z,8.25
2019-01-23T05:44:57.591Z,8.26
2019-01-23T05:47:23.904Z,8.25
2019-01-23T05:49:50.207Z,8.28
2019-01-23T05:52:16.523Z,8.28
2019-01-23T05:54:42.823Z,8.22
2019-01-23T05:57:09.129Z,8.14
2019-01-23T05:59:35.447Z,8.09
2019-01-23T06:02:01.749Z,8.09
2019-01-23T06:04:28.053Z,8.13
2019-01-23T06:06:54.366Z,8.15
2019-01-23T06:09:20.787Z,8.17
2019-01-23T06:11:47.057Z,8.18
2019-01-23T06:14:13.360Z,8.19
2019-01-23T06:16:39.683Z,8.25
2019-01-23T06:19:05.989Z,8.28
2019-01-23T06:21:32.304Z,8.30
2019-01-23T06:23:58.612Z,8.31
2019-01-23T06:26:24.928Z,8.30
2019-01-23T06:28:51.245Z,8.33
2019-01-23T06:31:17.562Z,8.33
2019-01-23T06:33:43.879Z,8.34
2019-01-23T06:36:10.169Z,8.35
2019-01-23T06:38:36.511Z,8.34
2019-01-23T06:41:02.782Z,8.31
2019-01-23T06:43:29.088Z,8.23
2019-01-23T06:45:55.440Z,8.20
2019-01-23T06:48:21.744Z,8.20
2019-01-23T06:50:48.052Z,8.27
2019-01-23T06:53:14.399Z,8.32
2019-01-23T06:55:40.711Z,8.33
2019-01-23T06:58:07.017Z,8.40
2019-01-23T07:00:33.322Z,8.42
2019-01-23T07:02:59.634Z,8.46
2019-01-23T07:05:25.948Z,8.48
2019-01-23T07:07:52.280Z,8.50
2019-01-23T07:10:18.561Z,8.50
2019-01-23T07:12:44.863Z,8.53
2019-01-23T07:15:11.172Z,8.55
2019-01-23T07:17:37.475Z,8.57
2019-01-23T07:20:03.793Z,8.58
2019-01-23T07:22:30.143Z,8.56
2019-01-23T07:24:56.443Z,8.57
2019-01-23T07:27:22.752Z,8.50
2019-01-23T07:29:49.074Z,8.43
2019-01-23T07:32:15.384Z,8.39
2019-01-23T07:34:41.684Z,8.41
2019-01-23T07:37:07.995Z,8.47
2019-01-23T07:39:34.298Z,8.50
2019-01-23T07:42:00.609Z,8.53
2019-01-23T07:44:26.914Z,8.58
2019-01-23T07:46:53.218Z,8.61
2019-01-23T07:49:19.528Z,8.64
2019-01-23T07:51:45.845Z,8.67
2019-01-23T07:54:12.147Z,8.70
2019-01-23T07:56:38.452Z,8.73
2019-01-23T07:59:04.755Z,8.76
2019-01-23T08:01:31.064Z,8.79
2019-01-23T08:03:57.369Z,8.84
2019-01-23T08:06:23.688Z,8.85
2019-01-23T08:08:49.992Z,8.91
2019-01-23T08:11:16.299Z,8.91
2019-01-23T08:13:42.629Z,8.87
2019-01-23T08:16:08.914Z,8.82
2019-01-23T08:18:35.223Z,8.83
2019-01-23T08:21:01.530Z,8.87
2019-01-23T08:23:27.835Z,8.98
2019-01-23T08:25:54.141Z,9.09
2019-01-23T08:28:20.448Z,9.22
2019-01-23T08:30:46.756Z,9.32
2019-01-23T08:33:13.066Z,9.41
2019-01-23T08:35:39.375Z,9.52
2019-01-23T08:38:05.684Z,9.60
2019-01-23T08:40:31.990Z,9.66
2019-01-23T08:42:58.300Z,9.72
2019-01-23T08:45:24.610Z,9.78
2019-01-23T08:47:50.915Z,9.81
2019-01-23T08:50:17.220Z,9.86
2019-01-23T08:52:43.580Z,9.87
2019-01-23T08:55:09.888Z,9.93
2019-01-23T08:57:36.197Z,9.92
2019-01-23T09:00:02.508Z,9.86
2019-01-23T09:02:28.816Z,9.77
2019-01-23T09:04:55.122Z,9.80
2019-01-23T09:07:21.428Z,9.88
2019-01-23T09:09:47.734Z,9.97
2019-01-23T09:12:14.095Z,10.03
2019-01-23T09:14:40.401Z,10.09
2019-01-23T09:17:06.717Z,10.13
2019-01-23T09:19:33.025Z,10.18
2019-01-23T09:21:59.337Z,10.21
2019-01-23T09:24:25.654Z,10.24
2019-01-23T09:26:51.963Z,10.26
2019-01-23T09:29:18.283Z,10.26
2019-01-23T09:31:44.587Z,10.24
2019-01-23T09:34:10.895Z,10.24
2019-01-23T09:36:37.199Z,10.23
2019-01-23T09:39:03.504Z,10.23
2019-01-23T09:41:29.812Z,10.23
2019-01-23T09:43:56.115Z,10.20
2019-01-23T09:46:22.421Z,10.12
2019-01-23T09:48:48.736Z,10.08
2019-01-23T09:51:15.044Z,10.14
2019-01-23T09:53:41.365Z,10.25
2019-01-23T09:56:07.671Z,10.39
2019-01-23T09:58:33.980Z,10.51
2019-01-23T10:01:00.292Z,10.55
2019-01-23T10:03:26.597Z,10.59
2019-01-23T10:05:52.901Z,10.62
2019-01-23T10:08:19.210Z,10.64
2019-01-23T10:10:45.519Z,10.65
2019-01-23T10:13:11.833Z,10.64
2019-01-23T10:15:38.135Z,10.65
2019-01-23T10:18:04.447Z,10.62
2019-01-23T10:20:30.758Z,10.60
2019-01-23T10:22:57.071Z,10.60
2019-01-23T10:25:23.370Z,10.62
2019-01-23T10:27:49.688Z,10.64
2019-01-23T10:30:15.985Z,10.60
2019-01-23T10:32:42.298Z,10.50
2019-01-23T10:35:08.603Z,10.43
2019-01-23T10:37:34.912Z,10.42
2019-01-23T10:40:01.220Z,10.47
2019-01-23T10:42:27.519Z,10.55
2019-01-23T10:44:53.825Z,10.60
2019-01-23T10:47:20.140Z,10.64
2019-01-23T10:49:46.447Z,10.65
2019-01-23T10:52:12.755Z,10.66
2019-01-23T10:54:39.067Z,10.66
2019-01-23T10:57:05.377Z,10.67
2019-01-23T10:59:31.675Z,10.68
2019-01-23T11:01:57.985Z,10.69
2019-01-23T11:04:24.301Z,10.69
2019-01-23T11:06:50.610Z,10.68
2019-01-23T11:09:17.009Z,10.70
2019-01-23T11:11:43.238Z,10.70
2019-01-23T11:14:09.543Z,10.71
2019-01-23T11:16:35.848Z,10.63
2019-01-23T11:19:02.158Z,10.50
2019-01-23T11:21:28.478Z,10.46
2019-01-23T11:23:54.787Z,10.46
2019-01-23T11:26:21.109Z,10.54
2019-01-23T11:28:47.412Z,10.60
2019-01-23T11:31:20.199Z,10.65
2019-01-23T11:33:40.025Z,10.70
2019-01-23T11:36:06.335Z,10.74
2019-01-23T11:38:32.651Z,10.77
2019-01-23T11:40:58.965Z,10.78
2019-01-23T11:43:25.272Z,10.79
2019-01-23T11:45:51.580Z,10.81
2019-01-23T11:48:17.891Z,10.83
2019-01-23T11:50:44.201Z,10.86
2019-01-23T11:53:10.510Z,10.88
2019-01-23T11:55:36.862Z,10.93
2019-01-23T11:58:03.190Z,10.94
2019-01-23T12:00:29.492Z,11.01
2019-01-23T12:02:55.812Z,10.96
2019-01-23T12:05:22.147Z,10.88
2019-01-23T12:07:48.459Z,10.83
2019-01-23T12:10:14.767Z,10.84
2019-01-23T12:12:41.077Z,10.88
2019-01-23T12:15:07.396Z,10.93
2019-01-23T12:17:33.694Z,10.96
2019-01-23T12:20:00.005Z,10.98
2019-01-23T12:22:26.312Z,10.99
2019-01-23T12:24:52.626Z,11.01
2019-01-23T12:27:18.933Z,11.03
2019-01-23T12:29:45.241Z,11.05
2019-01-23T12:32:11.577Z,11.07
2019-01-23T12:34:37.857Z,11.08
2019-01-23T12:37:04.185Z,11.08
2019-01-23T12:39:30.478Z,11.08
2019-01-23T12:41:56.783Z,11.06
2019-01-23T12:44:23.095Z,11.11
2019-01-23T12:46:49.405Z,11.09
2019-01-23T12:49:15.717Z,11.03
2019-01-23T12:51:42.023Z,10.96
2019-01-23T12:54:08.331Z,10.90
2019-01-23T12:56:34.641Z,10.92
2019-01-23T12:59:00.943Z,10.97
2019-01-23T13:01:27.252Z,11.02
2019-01-23T13:03:53.564Z,11.05
2019-01-23T13:06:19.869Z,11.09
2019-01-23T13:08:46.180Z,11.09
2019-01-23T13:11:12.484Z,11.11
2019-01-23T13:13:38.792Z,11.14
2019-01-23T13:16:05.105Z,11.16
2019-01-23T13:18:32.146Z,11.16
2019-01-23T13:20:57.761Z,11.17
2019-01-23T13:23:24.069Z,11.18
2019-01-23T13:25:50.405Z,11.19
2019-01-23T13:28:16.710Z,11.20
2019-01-23T13:30:43.063Z,11.19
2019-01-23T13:33:09.368Z,11.17
2019-01-23T13:35:35.710Z,11.10
2019-01-23T13:38:02.017Z,10.99
2019-01-23T13:40:28.334Z,10.96
2019-01-23T13:42:54.636Z,10.99
2019-01-23T13:45:20.944Z,11.01
2019-01-23T13:47:47.253Z,11.07
2019-01-23T13:50:13.556Z,11.09
2019-01-23T13:52:39.868Z,11.10
2019-01-23T13:55:06.170Z,11.11
2019-01-23T13:57:32.476Z,11.12
2019-01-23T13:59:58.801Z,11.12
2019-01-23T14:02:25.109Z,11.12
2019-01-23T14:04:51.415Z,11.11
2019-01-23T14:07:17.724Z,11.10
2019-01-23T14:09:44.030Z,11.10
2019-01-23T14:12:10.496Z,11.08
2019-01-23T14:14:36.800Z,11.09
2019-01-23T14:17:03.103Z,11.07
2019-01-23T14:19:29.409Z,11.05
2019-01-23T14:21:55.711Z,10.97
2019-01-23T14:24:22.019Z,10.88
2019-01-23T14:26:48.353Z,10.84
2019-01-23T14:29:14.660Z,10.86
2019-01-23T14:31:40.965Z,10.90
2019-01-23T14:34:07.279Z,10.93
2019-01-23T14:36:33.586Z,10.94
2019-01-23T14:38:59.896Z,10.94
2019-01-23T14:41:26.204Z,10.94
2019-01-23T14:43:52.508Z,10.95
2019-01-23T14:46:18.822Z,10.94
2019-01-23T14:48:45.124Z,10.95
2019-01-23T14:51:11.588Z,10.94
2019-01-23T14:53:37.893Z,10.93
2019-01-23T14:56:04.203Z,10.92
2019-01-23T14:58:30.508Z,10.91
2019-01-23T15:00:56.831Z,10.91
2019-01-23T15:03:23.128Z,10.90
2019-01-23T15:05:49.454Z,10.86
2019-01-23T15:08:15.768Z,10.76
2019-01-23T15:10:42.097Z,10.68
2019-01-23T15:13:08.407Z,10.65
2019-01-23T15:15:34.724Z,10.68
2019-01-23T15:18:01.150Z,10.71
2019-01-23T15:20:27.507Z,10.74
2019-01-23T15:22:53.836Z,10.76
2019-01-23T15:25:20.143Z,10.76
2019-01-23T15:27:46.448Z,10.75
2019-01-23T15:30:12.770Z,10.73
2019-01-23T15:32:39.075Z,10.76
2019-01-23T15:35:05.380Z,10.74
2019-01-23T15:37:31.693Z,10.73
2019-01-23T15:39:58.010Z,10.72
2019-01-23T15:42:24.318Z,10.72
2019-01-23T15:44:50.674Z,10.73
2019-01-23T15:47:17.020Z,10.72
2019-01-23T15:49:43.491Z,10.72
2019-01-23T15:52:09.799Z,10.68
2019-01-23T15:54:36.109Z,10.60
2019-01-23T15:57:02.417Z,10.53
2019-01-23T15:59:28.723Z,10.52
2019-01-23T16:01:55.101Z,10.53
2019-01-23T16:04:21.405Z,10.57
2019-01-23T16:06:47.714Z,10.61
2019-01-23T16:09:14.020Z,10.63
2019-01-23T16:11:40.332Z,10.64
2019-01-23T16:14:06.634Z,10.60
2019-01-23T16:16:32.956Z,10.62
2019-01-23T16:18:59.258Z,10.62
2019-01-23T16:21:25.575Z,10.70
2019-01-23T16:23:51.903Z,10.92
2019-01-23T16:26:20.795Z,10.98
2019-01-23T16:28:46.928Z,10.94
2019-01-23T16:31:13.249Z,10.84
2019-01-23T16:33:39.558Z,10.70
2019-01-23T16:36:05.894Z,10.60
2019-01-23T16:38:32.245Z,10.51
2019-01-23T16:40:58.555Z,10.44
2019-01-23T16:43:24.889Z,10.37
2019-01-23T16:45:51.209Z,10.32
2019-01-23T16:48:17.515Z,10.29
2019-01-23T16:50:43.829Z,10.25
2019-01-23T16:53:10.147Z,10.22
2019-01-23T16:55:36.451Z,10.19
2019-01-23T16:58:02.756Z,10.16
2019-01-23T17:00:29.064Z,10.14
2019-01-23T17:02:55.368Z,10.12
2019-01-23T17:05:21.686Z,10.10
2019-01-23T17:07:47.997Z,10.08
2019-01-23T17:10:14.319Z,10.06
2019-01-23T17:12:40.620Z,10.04
2019-01-23T17:15:06.926Z,10.03
2019-01-23T17:17:33.314Z,10.01
2019-01-23T17:19:59.618Z,9.98
2019-01-23T17:22:25.916Z,9.99
2019-01-23T17:24:52.233Z,9.98
2019-01-23T17:27:18.555Z,9.97
2019-01-23T17:29:44.859Z,9.96
2019-01-23T17:32:11.203Z,9.94
2019-01-23T17:34:37.600Z,9.92
2019-01-23T17:37:04.126Z,9.91
2019-01-23T17:39:30.432Z,9.89
2019-01-23T17:41:56.752Z,9.88
2019-01-23T17:44:23.065Z,9.88
2019-01-23T17:46:49.358Z,9.87
2019-01-23T17:49:15.677Z,9.83
2019-01-23T17:51:41.993Z,9.84
2019-01-23T17:54:08.308Z,9.85
2019-01-23T17:56:34.615Z,9.84
2019-01-23T17:59:01.308Z,9.83
2019-01-23T18:01:27.229Z,9.83
2019-01-23T18:03:53.533Z,9.81
2019-01-23T18:06:19.858Z,9.81
2019-01-23T18:08:46.167Z,9.78
2019-01-23T18:11:12.472Z,9.78
2019-01-23T18:13:38.804Z,9.78
2019-01-23T18:16:05.107Z,9.76
2019-01-23T18:18:31.411Z,9.74
2019-01-23T18:20:57.715Z,9.73
2019-01-23T18:23:24.014Z,9.73
2019-01-23T18:25:50.404Z,9.72
2019-01-23T18:28:16.765Z,9.65
2019-01-23T18:30:43.133Z,9.71
2019-01-23T18:33:09.443Z,9.71
2019-01-23T18:35:35.747Z,9.69
2019-01-23T18:38:02.069Z,9.69
2019-01-23T18:40:28.399Z,9.65
2019-01-23T18:42:54.719Z,9.68
2019-01-23T18:45:21.024Z,9.67
2019-01-23T18:47:47.328Z,9.66
2019-01-23T18:50:13.693Z,9.65
2019-01-23T18:52:40.316Z,9.65
2019-01-23T18:55:06.931Z,9.64
2019-01-23T18:57:33.240Z,9.63
2019-01-23T18:59:59.633Z,9.65
2019-01-23T19:02:25.970Z,9.64
2019-01-23T19:04:52.342Z,9.62
2019-01-23T19:07:18.789Z,9.61
2019-01-23T19:09:45.096Z,9.60
2019-01-23T19:12:11.402Z,9.59
2019-01-23T19:14:37.715Z,9.59
2019-01-23T19:17:04.024Z,9.58
2019-01-23T19:19:30.406Z,9.57
2019-01-23T19:21:56.808Z,9.55
2019-01-23T19:24:23.170Z,9.57
2019-01-23T19:26:49.530Z,9.55
2019-01-23T19:29:15.885Z,9.56
2019-01-23T19:31:42.513Z,9.55
2019-01-23T19:34:08.815Z,9.54
2019-01-23T19:36:35.218Z,9.54
2019-01-23T19:39:01.577Z,9.52
2019-01-23T19:41:27.942Z,9.54
2019-01-23T19:43:55.095Z,9.52
2019-01-23T19:46:21.447Z,9.52
2019-01-23T19:48:50.093Z,9.52
2019-01-23T19:51:16.411Z,9.52
2019-01-23T19:53:42.774Z,9.49
2019-01-23T19:56:09.181Z,9.50
2019-01-23T19:58:35.538Z,9.48
2019-01-23T20:01:01.965Z,9.48
2019-01-23T20:03:28.614Z,9.49
2019-01-23T20:05:54.986Z,9.46
2019-01-23T20:08:21.418Z,9.47
2019-01-23T20:10:47.746Z,9.46
2019-01-23T20:13:14.138Z,9.46
2019-01-23T20:15:41.947Z,9.45
2019-01-23T20:18:07.211Z,9.45
2019-01-23T20:20:35.958Z,9.45
2019-01-23T20:22:59.934Z,9.44
2019-01-23T20:25:27.727Z,9.44
2019-01-23T20:27:53.688Z,9.44
2019-01-23T20:30:21.162Z,9.45
2019-01-23T20:32:47.570Z,9.45
2019-01-23T20:35:13.929Z,9.43
2019-01-23T20:37:43.576Z,9.43
2019-01-23T20:40:06.668Z,9.42
2019-01-23T20:42:33.001Z,9.43
2019-01-23T20:44:59.356Z,9.43
2019-01-23T20:47:25.719Z,9.42
2019-01-23T20:49:52.136Z,9.42
2019-01-23T20:52:18.499Z,9.43
2019-01-23T20:54:44.805Z,9.42
2019-01-23T20:57:11.183Z,9.42
2019-01-23T20:59:37.550Z,9.44
2019-01-23T21:02:03.916Z,9.43
2019-01-23T21:04:30.311Z,9.44
2019-01-23T21:06:56.691Z,9.42
2019-01-23T21:09:23.369Z,9.43
2019-01-23T21:11:49.730Z,9.44
2019-01-23T21:14:16.136Z,9.46
2019-01-23T21:16:42.514Z,9.45
2019-01-23T21:19:08.932Z,9.45
2019-01-23T21:21:35.266Z,9.45
2019-01-23T21:24:01.859Z,9.43
2019-01-23T21:26:28.216Z,9.46
2019-01-23T21:28:54.611Z,9.45
2019-01-23T21:31:20.931Z,9.46
2019-01-23T21:33:47.241Z,9.45
2019-01-23T21:36:14.735Z,9.45
2019-01-23T21:38:39.899Z,9.43
2019-01-23T21:41:06.166Z,9.44
2019-01-23T21:43:32.472Z,9.44
2019-01-23T21:45:58.790Z,9.43
2019-01-23T21:48:25.177Z,9.42
2019-01-23T21:50:51.487Z,9.42
2019-01-23T21:53:17.854Z,9.43
2019-01-23T21:55:44.218Z,9.42
2019-01-23T21:58:10.525Z,9.41
2019-01-23T22:00:36.831Z,9.41
2019-01-23T22:03:03.159Z,9.41
2019-01-23T22:05:29.469Z,9.40
2019-01-23T22:07:58.547Z,9.39
2019-01-23T22:10:24.862Z,9.39
2019-01-23T22:12:51.170Z,9.39
2019-01-23T22:15:17.481Z,9.38
2019-01-23T22:17:43.808Z,9.37
2019-01-23T22:20:10.120Z,9.38
2019-01-23T22:22:36.431Z,9.35
2019-01-23T22:25:02.773Z,9.38
2019-01-23T22:27:29.124Z,9.37
2019-01-23T22:29:55.458Z,9.37
2019-01-23T22:32:21.800Z,9.37
2019-01-23T22:34:48.177Z,9.37
2019-01-23T22:37:14.530Z,9.36
2019-01-23T22:39:40.841Z,9.36
2019-01-23T22:42:07.147Z,9.36
2019-01-23T22:44:33.541Z,9.36
2019-01-23T22:46:59.905Z,9.36
2019-01-23T22:49:26.289Z,9.36
2019-01-23T22:51:52.637Z,9.37
2019-01-23T22:54:19.011Z,9.35
2019-01-23T22:56:45.349Z,9.36
2019-01-23T22:59:11.712Z,9.37
2019-01-23T23:01:38.024Z,9.39
2019-01-23T23:04:04.424Z,9.36
2019-01-23T23:06:30.720Z,9.36
2019-01-23T23:08:57.065Z,9.40
2019-01-23T23:11:23.419Z,9.40
2019-01-23T23:13:49.822Z,9.40
2019-01-23T23:16:16.134Z,9.40
2019-01-23T23:18:42.521Z,9.41
2019-01-23T23:21:08.832Z,9.41
2019-01-23T23:23:35.136Z,9.42
2019-01-23T23:26:01.442Z,9.41
2019-01-23T23:28:27.749Z,9.41
2019-01-23T23:30:54.122Z,9.40
2019-01-23T23:33:20.402Z,9.42
2019-01-23T23:35:46.777Z,9.42
2019-01-23T23:38:13.080Z,9.41
2019-01-23T23:40:39.448Z,9.42
2019-01-23T23:43:05.832Z,9.42
2019-01-23T23:45:32.234Z,9.42
2019-01-23T23:47:58.588Z,9.43
2019-01-23T23:50:24.891Z,9.43
2019-01-23T23:52:51.199Z,9.43
2019-01-23T23:55:17.587Z,9.42
2019-01-23T23:57:43.961Z,9.42
